Allagash, Maine
Current Conditions -  °F | °C
As of 9:53 PM on Friday 31 Oct 2014 (Local Time) from KFVE Reporting Station
Overcast Overcast  
Wind Chill: 30°   Ceiling: 5000
Heat Index: 34°   Visibility: 10mi
Dew Point: 27°   Wind: 5mph
Humidity: 75%   Direction: 20°NNE
Pressure: 30.12"   Gusts: NA
Location:  47.1951°N, 69.2728°W
Report Text: KFVE 010153Z AUTO 02004KT 10SM OVC050 01/M03 A3012 RMK AO2 SLP209 T00111028
Loading
Personal Weather Stations






























Interactive Weather Map
Tropical Storm Tracking
New forecast layout! Learn more

10-Day Weather Forecast

Advertisements
Track Severe Weather on mobile